sensor_id;sensor_type;location;lat;lon;timestamp;pressure;altitude;pressure_sealevel;temperature;humidity
69167;BME280;56273;53.148;8.204;2022-09-09T00:00:14;100704.50;;;23.53;nan
69167;BME280;56273;53.148;8.204;2022-09-09T00:02:44;100710.72;;;23.54;nan
69167;BME280;56273;53.148;8.204;2022-09-09T00:05:23;100717.88;;;23.53;nan
69167;BME280;56273;53.148;8.204;2022-09-09T00:07:58;100717.88;;;23.53;nan
69167;BME280;56273;53.148;8.204;2022-09-09T00:10:29;100717.88;;;23.53;nan
69167;BME280;56273;53.148;8.204;2022-09-09T00:13:02;100710.81;;;23.52;nan
69167;BME280;56273;53.148;8.204;2022-09-09T00:15:42;100709.00;;;23.53;nan
69167;BME280;56273;53.148;8.204;2022-09-09T00:18:29;100708.16;;;23.52;nan
69167;BME280;56273;53.148;8.204;2022-09-09T00:21:07;100706.31;;;23.53;nan
69167;BME280;56273;53.148;8.204;2022-09-09T00:23:38;100700.97;;;23.53;nan
69167;BME280;56273;53.148;8.204;2022-09-09T00:26:07;100705.47;;;23.52;nan
69167;BME280;56273;53.148;8.204;2022-09-09T00:28:45;100709.94;;;23.52;nan
69167;BME280;56273;53.148;8.204;2022-09-09T00:31:20;100711.75;;;23.51;nan
69167;BME280;56273;53.148;8.204;2022-09-09T00:33:50;100715.28;;;23.52;nan
69167;BME280;56273;53.148;8.204;2022-09-09T00:36:18;100717.94;;;23.52;nan
69167;BME280;56273;53.148;8.204;2022-09-09T00:38:55;100720.63;;;23.52;nan
69167;BME280;56273;53.148;8.204;2022-09-09T00:41:30;100717.94;;;23.52;nan
69167;BME280;56273;53.148;8.204;2022-09-09T00:57:12;100703.84;;;23.50;nan
69167;BME280;56273;53.148;8.204;2022-09-09T00:59:50;100701.16;;;23.50;nan
69167;BME280;56273;53.148;8.204;2022-09-09T01:04:53;100697.53;;;23.51;nan
69167;BME280;56273;53.148;8.204;2022-09-09T01:07:19;100704.69;;;23.50;nan
69167;BME280;56273;53.148;8.204;2022-09-09T01:15:21;100706.53;;;23.50;nan
69167;BME280;56273;53.148;8.204;2022-09-09T01:17:53;100701.16;;;23.50;nan
69167;BME280;56273;53.148;8.204;2022-09-09T01:20:30;100699.34;;;23.50;nan
69167;BME280;56273;53.148;8.204;2022-09-09T01:28:09;100691.44;;;23.49;nan
69167;BME280;56273;53.148;8.204;2022-09-09T01:30:40;100696.78;;;23.49;nan
69167;BME280;56273;53.148;8.204;2022-09-09T01:33:10;100696.78;;;23.49;nan
69167;BME280;56273;53.148;8.204;2022-09-09T01:35:47;100693.28;;;23.48;nan
69167;BME280;56273;53.148;8.204;2022-09-09T01:38:32;100690.59;;;23.48;nan
69167;BME280;56273;53.148;8.204;2022-09-09T01:40:59;100694.13;;;23.49;nan
69167;BME280;56273;53.148;8.204;2022-09-09T01:43:25;100685.25;;;23.48;nan
69167;BME280;56273;53.148;8.204;2022-09-09T01:45:53;100687.94;;;23.48;nan
69167;BME280;56273;53.148;8.204;2022-09-09T01:48:21;100683.44;;;23.49;nan
69167;BME280;56273;53.148;8.204;2022-09-09T01:50:48;100678.94;;;23.49;nan
69167;BME280;56273;53.148;8.204;2022-09-09T01:53:14;100681.63;;;23.49;nan
69167;BME280;56273;53.148;8.204;2022-09-09T01:55:44;100677.25;;;23.48;nan
69167;BME280;56273;53.148;8.204;2022-09-09T02:00:56;100675.50;;;23.47;nan
69167;BME280;56273;53.148;8.204;2022-09-09T02:03:31;100679.91;;;23.48;nan
69167;BME280;56273;53.148;8.204;2022-09-09T02:08:50;100680.84;;;23.47;nan
69167;BME280;56273;53.148;8.204;2022-09-09T02:11:20;100672.81;;;23.47;nan
69167;BME280;56273;53.148;8.204;2022-09-09T02:13:48;100670.16;;;23.47;nan
69167;BME280;56273;53.148;8.204;2022-09-09T02:16:25;100671.91;;;23.48;nan
69167;BME280;56273;53.148;8.204;2022-09-09T02:19:14;100677.31;;;23.47;nan
69167;BME280;56273;53.148;8.204;2022-09-09T02:21:50;100675.50;;;23.47;nan
69167;BME280;56273;53.148;8.204;2022-09-09T02:24:18;100669.31;;;23.47;nan
69167;BME280;56273;53.148;8.204;2022-09-09T02:26:45;100663.09;;;23.46;nan
69167;BME280;56273;53.148;8.204;2022-09-09T02:29:21;100671.13;;;23.46;nan
69167;BME280;56273;53.148;8.204;2022-09-09T02:31:51;100675.50;;;23.47;nan
69167;BME280;56273;53.148;8.204;2022-09-09T02:34:20;100671.13;;;23.46;nan
69167;BME280;56273;53.148;8.204;2022-09-09T02:36:48;100671.13;;;23.46;nan
69167;BME280;56273;53.148;8.204;2022-09-09T02:39:18;100673.78;;;23.46;nan
69167;BME280;56273;53.148;8.204;2022-09-09T02:41:43;100667.59;;;23.46;nan
69167;BME280;56273;53.148;8.204;2022-09-09T02:44:12;100672.09;;;23.45;nan
69167;BME280;56273;53.148;8.204;2022-09-09T02:49:25;100677.44;;;23.45;nan
69167;BME280;56273;53.148;8.204;2022-09-09T02:52:02;100679.25;;;23.45;nan
69167;BME280;56273;53.148;8.204;2022-09-09T02:57:00;100674.75;;;23.45;nan
69167;BME280;56273;53.148;8.204;2022-09-09T02:59:31;100676.47;;;23.46;nan
69167;BME280;56273;53.148;8.204;2022-09-09T03:01:57;100674.75;;;23.45;nan
69167;BME280;56273;53.148;8.204;2022-09-09T03:04:22;100672.09;;;23.45;nan
69167;BME280;56273;53.148;8.204;2022-09-09T03:06:49;100670.38;;;23.44;nan
69167;BME280;56273;53.148;8.204;2022-09-09T03:09:14;100673.06;;;23.44;nan
69167;BME280;56273;53.148;8.204;2022-09-09T03:11:39;100673.91;;;23.45;nan
69167;BME280;56273;53.148;8.204;2022-09-09T03:14:05;100677.44;;;23.45;nan
69167;BME280;56273;53.148;8.204;2022-09-09T03:16:30;100671.22;;;23.45;nan
69167;BME280;56273;53.148;8.204;2022-09-09T03:18:55;100677.44;;;23.45;nan
69167;BME280;56273;53.148;8.204;2022-09-09T03:21:21;100679.25;;;23.45;nan
69167;BME280;56273;53.148;8.204;2022-09-09T03:23:46;100674.88;;;23.44;nan
69167;BME280;56273;53.148;8.204;2022-09-09T03:26:11;100683.75;;;23.44;nan
69167;BME280;56273;53.148;8.204;2022-09-09T03:28:39;100682.03;;;23.43;nan
69167;BME280;56273;53.148;8.204;2022-09-09T03:31:05;100679.34;;;23.43;nan
69167;BME280;56273;53.148;8.204;2022-09-09T03:33:31;100679.34;;;23.43;nan
69167;BME280;56273;53.148;8.204;2022-09-09T03:35:56;100676.69;;;23.43;nan
69167;BME280;56273;53.148;8.204;2022-09-09T03:38:23;100679.34;;;23.43;nan
69167;BME280;56273;53.148;8.204;2022-09-09T03:40:52;100679.34;;;23.43;nan
69167;BME280;56273;53.148;8.204;2022-09-09T03:43:21;100678.50;;;23.43;nan
69167;BME280;56273;53.148;8.204;2022-09-09T03:45:46;100685.56;;;23.44;nan
69167;BME280;56273;53.148;8.204;2022-09-09T03:48:12;100677.63;;;23.42;nan
69167;BME280;56273;53.148;8.204;2022-09-09T03:50:43;100687.38;;;23.43;nan
69167;BME280;56273;53.148;8.204;2022-09-09T03:53:12;100687.38;;;23.43;nan
69167;BME280;56273;53.148;8.204;2022-09-09T03:55:38;100694.53;;;23.43;nan
69167;BME280;56273;53.148;8.204;2022-09-09T03:58:03;100703.41;;;23.43;nan
69167;BME280;56273;53.148;8.204;2022-09-09T04:00:29;100700.72;;;23.43;nan
69167;BME280;56273;53.148;8.204;2022-09-09T04:02:55;100700.72;;;23.43;nan
69167;BME280;56273;53.148;8.204;2022-09-09T04:05:21;100695.47;;;23.42;nan
69167;BME280;56273;53.148;8.204;2022-09-09T04:07:47;100699.97;;;23.41;nan
69167;BME280;56273;53.148;8.204;2022-09-09T04:10:12;100696.31;;;23.42;nan
69167;BME280;56273;53.148;8.204;2022-09-09T04:12:38;100703.47;;;23.42;nan
69167;BME280;56273;53.148;8.204;2022-09-09T04:15:04;100707.00;;;23.42;nan
69167;BME280;56273;53.148;8.204;2022-09-09T04:17:29;100699.88;;;23.43;nan
69167;BME280;56273;53.148;8.204;2022-09-09T04:19:55;100703.47;;;23.42;nan
69167;BME280;56273;53.148;8.204;2022-09-09T04:22:20;100705.28;;;23.41;nan
69167;BME280;56273;53.148;8.204;2022-09-09T04:24:47;100702.63;;;23.41;nan
69167;BME280;56273;53.148;8.204;2022-09-09T04:27:12;100708.81;;;23.42;nan
69167;BME280;56273;53.148;8.204;2022-09-09T04:29:37;100707.97;;;23.41;nan
69167;BME280;56273;53.148;8.204;2022-09-09T04:32:03;100707.97;;;23.41;nan
69167;BME280;56273;53.148;8.204;2022-09-09T04:34:28;100707.97;;;23.41;nan
69167;BME280;56273;53.148;8.204;2022-09-09T04:36:53;100702.63;;;23.41;nan
69167;BME280;56273;53.148;8.204;2022-09-09T04:39:20;100698.13;;;23.42;nan
69167;BME280;56273;53.148;8.204;2022-09-09T04:41:45;100706.25;;;23.40;nan
69167;BME280;56273;53.148;8.204;2022-09-09T04:44:10;100707.97;;;23.41;nan
69167;BME280;56273;53.148;8.204;2022-09-09T04:46:36;100711.59;;;23.40;nan
69167;BME280;56273;53.148;8.204;2022-09-09T04:49:01;100715.97;;;23.41;nan
69167;BME280;56273;53.148;8.204;2022-09-09T04:51:26;100713.31;;;23.41;nan
69167;BME280;56273;53.148;8.204;2022-09-09T04:53:51;100715.97;;;23.41;nan
69167;BME280;56273;53.148;8.204;2022-09-09T04:56:18;100715.97;;;23.41;nan
69167;BME280;56273;53.148;8.204;2022-09-09T04:58:44;100719.63;;;23.40;nan
69167;BME280;56273;53.148;8.204;2022-09-09T05:01:14;100721.31;;;23.41;nan
69167;BME280;56273;53.148;8.204;2022-09-09T05:03:46;100726.66;;;23.41;nan
69167;BME280;56273;53.148;8.204;2022-09-09T05:06:16;100732.00;;;23.41;nan
69167;BME280;56273;53.148;8.204;2022-09-09T05:08:43;100722.28;;;23.40;nan
69167;BME280;56273;53.148;8.204;2022-09-09T05:11:19;100734.69;;;23.41;nan
69167;BME280;56273;53.148;8.204;2022-09-09T05:13:47;100737.34;;;23.41;nan
69167;BME280;56273;53.148;8.204;2022-09-09T05:16:12;100734.78;;;23.40;nan
69167;BME280;56273;53.148;8.204;2022-09-09T05:18:39;100733.84;;;23.41;nan
69167;BME280;56273;53.148;8.204;2022-09-09T05:21:06;100738.31;;;23.40;nan
69167;BME280;56273;53.148;8.204;2022-09-09T05:23:32;100734.78;;;23.40;nan
69167;BME280;56273;53.148;8.204;2022-09-09T05:25:58;100741.00;;;23.40;nan
69167;BME280;56273;53.148;8.204;2022-09-09T05:28:25;100743.84;;;23.37;nan
69167;BME280;56273;53.148;8.204;2022-09-09T05:30:58;100739.56;;;23.35;nan
69167;BME280;56273;53.148;8.204;2022-09-09T05:33:25;100741.41;;;23.34;nan
69167;BME280;56273;53.148;8.204;2022-09-09T05:35:58;100745.88;;;23.34;nan
69167;BME280;56273;53.148;8.204;2022-09-09T05:38:26;100744.06;;;23.34;nan
69167;BME280;56273;53.148;8.204;2022-09-09T05:40:52;100744.91;;;23.35;nan
69167;BME280;56273;53.148;8.204;2022-09-09T05:43:18;100747.47;;;23.36;nan
69167;BME280;56273;53.148;8.204;2022-09-09T05:45:45;100742.13;;;23.36;nan
69167;BME280;56273;53.148;8.204;2022-09-09T05:48:12;100747.47;;;23.36;nan
69167;BME280;56273;53.148;8.204;2022-09-09T05:50:40;100748.44;;;23.35;nan
69167;BME280;56273;53.148;8.204;2022-09-09T05:53:05;100752.81;;;23.36;nan
69167;BME280;56273;53.148;8.204;2022-09-09T05:55:30;100747.47;;;23.36;nan
69167;BME280;56273;53.148;8.204;2022-09-09T05:57:56;100749.19;;;23.37;nan
69167;BME280;56273;53.148;8.204;2022-09-09T06:00:21;100756.28;;;23.38;nan
69167;BME280;56273;53.148;8.204;2022-09-09T06:02:50;100757.97;;;23.39;nan
69167;BME280;56273;53.148;8.204;2022-09-09T06:05:17;100757.03;;;23.40;nan
69167;BME280;56273;53.148;8.204;2022-09-09T06:07:42;100752.53;;;23.41;nan
69167;BME280;56273;53.148;8.204;2022-09-09T06:10:09;100755.31;;;23.39;nan
69167;BME280;56273;53.148;8.204;2022-09-09T06:12:35;100757.97;;;23.39;nan
69167;BME280;56273;53.148;8.204;2022-09-09T06:15:00;100757.97;;;23.39;nan
69167;BME280;56273;53.148;8.204;2022-09-09T06:17:26;100758.84;;;23.40;nan
69167;BME280;56273;53.148;8.204;2022-09-09T06:19:51;100763.31;;;23.39;nan
69167;BME280;56273;53.148;8.204;2022-09-09T06:22:17;100757.97;;;23.39;nan
69167;BME280;56273;53.148;8.204;2022-09-09T06:24:42;100765.03;;;23.40;nan
69167;BME280;56273;53.148;8.204;2022-09-09T06:27:08;100752.41;;;23.42;nan
69167;BME280;56273;53.148;8.204;2022-09-09T06:29:33;100750.72;;;23.41;nan
69167;BME280;56273;53.148;8.204;2022-09-09T06:31:58;100749.69;;;23.44;nan
69167;BME280;56273;53.148;8.204;2022-09-09T06:34:24;100749.75;;;23.42;nan
69167;BME280;56273;53.148;8.204;2022-09-09T06:36:49;100748.81;;;23.43;nan
69167;BME280;56273;53.148;8.204;2022-09-09T06:39:14;100755.09;;;23.42;nan
69167;BME280;56273;53.148;8.204;2022-09-09T06:41:40;100753.31;;;23.43;nan
69167;BME280;56273;53.148;8.204;2022-09-09T06:44:07;100752.63;;;23.39;nan
69167;BME280;56273;53.148;8.204;2022-09-09T06:46:32;100748.03;;;23.41;nan
69167;BME280;56273;53.148;8.204;2022-09-09T06:48:58;100747.19;;;23.41;nan
69167;BME280;56273;53.148;8.204;2022-09-09T06:51:25;100743.56;;;23.42;nan
69167;BME280;56273;53.148;8.204;2022-09-09T06:53:53;100743.66;;;23.40;nan
69167;BME280;56273;53.148;8.204;2022-09-09T06:56:23;100746.34;;;23.40;nan
69167;BME280;56273;53.148;8.204;2022-09-09T06:58:54;100743.66;;;23.40;nan
69167;BME280;56273;53.148;8.204;2022-09-09T07:01:22;100743.66;;;23.40;nan
69167;BME280;56273;53.148;8.204;2022-09-09T07:03:50;100744.41;;;23.42;nan
69167;BME280;56273;53.148;8.204;2022-09-09T07:06:26;100747.84;;;23.44;nan
69167;BME280;56273;53.148;8.204;2022-09-09T07:08:54;100748.41;;;23.49;nan
69167;BME280;56273;53.148;8.204;2022-09-09T07:11:23;100753.56;;;23.52;nan
69167;BME280;56273;53.148;8.204;2022-09-09T07:13:52;100753.34;;;23.55;nan
69167;BME280;56273;53.148;8.204;2022-09-09T07:16:18;100748.66;;;23.59;nan
69167;BME280;56273;53.148;8.204;2022-09-09T07:18:45;100757.44;;;23.61;nan
69167;BME280;56273;53.148;8.204;2022-09-09T07:21:11;100758.22;;;23.63;nan
69167;BME280;56273;53.148;8.204;2022-09-09T07:23:38;100751.94;;;23.64;nan
69167;BME280;56273;53.148;8.204;2022-09-09T07:26:08;100760.69;;;23.66;nan
69167;BME280;56273;53.148;8.204;2022-09-09T07:28:34;100758.78;;;23.68;nan
69167;BME280;56273;53.148;8.204;2022-09-09T07:31:00;100762.22;;;23.70;nan
69167;BME280;56273;53.148;8.204;2022-09-09T07:33:30;100762.88;;;23.74;nan
69167;BME280;56273;53.148;8.204;2022-09-09T07:38:30;100763.72;;;23.74;nan
69167;BME280;56273;53.148;8.204;2022-09-09T07:41:03;100766.09;;;23.79;nan
69167;BME280;56273;53.148;8.204;2022-09-09T07:43:30;100770.28;;;23.83;nan
69167;BME280;56273;53.148;8.204;2022-09-09T07:45:59;100765.69;;;23.85;nan
69167;BME280;56273;53.148;8.204;2022-09-09T07:48:26;100763.78;;;23.87;nan
69167;BME280;56273;53.148;8.204;2022-09-09T07:50:52;100768.16;;;23.88;nan
69167;BME280;56273;53.148;8.204;2022-09-09T07:53:17;100766.16;;;23.92;nan
69167;BME280;56273;53.148;8.204;2022-09-09T07:55:44;100769.69;;;23.92;nan
69167;BME280;56273;53.148;8.204;2022-09-09T07:58:10;100765.31;;;23.91;nan
69167;BME280;56273;53.148;8.204;2022-09-09T08:00:35;100774.91;;;23.94;nan
69167;BME280;56273;53.148;8.204;2022-09-09T08:03:01;100771.50;;;23.92;nan
69167;BME280;56273;53.148;8.204;2022-09-09T08:05:26;100770.44;;;23.94;nan
69167;BME280;56273;53.148;8.204;2022-09-09T08:07:53;100770.34;;;23.96;nan
69167;BME280;56273;53.148;8.204;2022-09-09T08:10:18;100768.84;;;23.92;nan
69167;BME280;56273;53.148;8.204;2022-09-09T08:12:43;100780.28;;;23.94;nan
69167;BME280;56273;53.148;8.204;2022-09-09T08:15:09;100768.53;;;23.96;nan
69167;BME280;56273;53.148;8.204;2022-09-09T08:17:34;100769.16;;;24.00;nan
69167;BME280;56273;53.148;8.204;2022-09-09T08:19:59;100771.75;;;24.01;nan
69167;BME280;56273;53.148;8.204;2022-09-09T08:22:29;100760.84;;;24.04;nan
69167;BME280;56273;53.148;8.204;2022-09-09T08:24:54;100755.28;;;24.08;nan
69167;BME280;56273;53.148;8.204;2022-09-09T08:27:20;100752.41;;;24.11;nan
69167;BME280;56273;53.148;8.204;2022-09-09T08:29:45;100765.69;;;24.12;nan
69167;BME280;56273;53.148;8.204;2022-09-09T08:32:10;100764.72;;;24.13;nan
69167;BME280;56273;53.148;8.204;2022-09-09T08:34:35;100767.38;;;24.13;nan
69167;BME280;56273;53.148;8.204;2022-09-09T08:37:01;100767.38;;;24.13;nan
69167;BME280;56273;53.148;8.204;2022-09-09T08:39:26;100759.34;;;24.13;nan
69167;BME280;56273;53.148;8.204;2022-09-09T08:42:15;100758.41;;;24.14;nan
69167;BME280;56273;53.148;8.204;2022-09-09T08:50:30;100770.06;;;24.13;nan
69167;BME280;56273;53.148;8.204;2022-09-09T09:00:51;100771.38;;;24.33;nan
69167;BME280;56273;53.148;8.204;2022-09-09T09:09:07;100784.44;;;24.25;nan
69167;BME280;56273;53.148;8.204;2022-09-09T09:12:23;100788.81;;;24.26;nan
69167;BME280;56273;53.148;8.204;2022-09-09T09:14:52;100796.44;;;24.32;nan
69167;BME280;56273;53.148;8.204;2022-09-09T09:17:21;100791.06;;;24.32;nan
69167;BME280;56273;53.148;8.204;2022-09-09T09:19:50;100798.38;;;24.30;nan
69167;BME280;56273;53.148;8.204;2022-09-09T09:22:20;100797.50;;;24.29;nan
69167;BME280;56273;53.148;8.204;2022-09-09T09:27:44;100785.94;;;24.29;nan
69167;BME280;56273;53.148;8.204;2022-09-09T09:30:18;100790.97;;;24.33;nan
69167;BME280;56273;53.148;8.204;2022-09-09T09:35:28;100785.44;;;24.37;nan
69167;BME280;56273;53.148;8.204;2022-09-09T09:37:53;100789.16;;;24.34;nan
69167;BME280;56273;53.148;8.204;2022-09-09T09:40:20;100788.50;;;24.30;nan
69167;BME280;56273;53.148;8.204;2022-09-09T09:42:48;100785.63;;;24.33;nan
69167;BME280;56273;53.148;8.204;2022-09-09T09:45:17;100785.13;;;24.41;nan
69167;BME280;56273;53.148;8.204;2022-09-09T09:48:08;100787.31;;;24.49;nan
69167;BME280;56273;53.148;8.204;2022-09-09T09:50:35;100791.38;;;24.54;nan
69167;BME280;56273;53.148;8.204;2022-09-09T09:53:19;100789.88;;;24.50;nan
69167;BME280;56273;53.148;8.204;2022-09-09T09:55:51;100793.69;;;24.46;nan
69167;BME280;56273;53.148;8.204;2022-09-09T09:58:20;100795.84;;;24.41;nan
69167;BME280;56273;53.148;8.204;2022-09-09T10:00:48;100787.81;;;24.41;nan
69167;BME280;56273;53.148;8.204;2022-09-09T10:03:32;100795.94;;;24.40;nan
69167;BME280;56273;53.148;8.204;2022-09-09T10:06:02;100788.78;;;24.40;nan
69167;BME280;56273;53.148;8.204;2022-09-09T10:08:28;100789.31;;;24.45;nan
69167;BME280;56273;53.148;8.204;2022-09-09T10:18:58;100781.63;;;24.53;nan
69167;BME280;56273;53.148;8.204;2022-09-09T10:32:38;100781.72;;;24.52;nan
69167;BME280;56273;53.148;8.204;2022-09-09T10:35:09;100782.81;;;24.49;nan
69167;BME280;56273;53.148;8.204;2022-09-09T10:40:38;100785.59;;;24.61;nan
69167;BME280;56273;53.148;8.204;2022-09-09T10:43:21;100776.81;;;24.71;nan
69167;BME280;56273;53.148;8.204;2022-09-09T10:51:45;100792.66;;;24.62;nan
69167;BME280;56273;53.148;8.204;2022-09-09T10:56:54;100787.94;;;24.65;nan
69167;BME280;56273;53.148;8.204;2022-09-09T10:59:28;100778.31;;;24.63;nan
69167;BME280;56273;53.148;8.204;2022-09-09T11:01:59;100775.41;;;24.66;nan
69167;BME280;56273;53.148;8.204;2022-09-09T11:04:42;100781.53;;;24.68;nan
69167;BME280;56273;53.148;8.204;2022-09-09T11:07:16;100777.25;;;24.78;nan
69167;BME280;56273;53.148;8.204;2022-09-09T11:09:52;100770.50;;;24.85;nan
69167;BME280;56273;53.148;8.204;2022-09-09T11:12:26;100771.13;;;24.89;nan
69167;BME280;56273;53.148;8.204;2022-09-09T11:14:57;100780.88;;;24.90;nan
69167;BME280;56273;53.148;8.204;2022-09-09T11:17:44;100779.06;;;24.90;nan
69167;BME280;56273;53.148;8.204;2022-09-09T11:20:14;100786.88;;;24.93;nan
69167;BME280;56273;53.148;8.204;2022-09-09T11:22:44;100785.59;;;24.99;nan
69167;BME280;56273;53.148;8.204;2022-09-09T11:25:21;100784.28;;;25.04;nan
69167;BME280;56273;53.148;8.204;2022-09-09T11:31:27;100781.63;;;25.04;nan
69167;BME280;56273;53.148;8.204;2022-09-09T11:36:54;100782.19;;;25.10;nan
69167;BME280;56273;53.148;8.204;2022-09-09T11:42:05;100774.88;;;24.99;nan
69167;BME280;56273;53.148;8.204;2022-09-09T11:44:32;100779.91;;;24.91;nan
69167;BME280;56273;53.148;8.204;2022-09-09T11:46:58;100779.38;;;24.86;nan
69167;BME280;56273;53.148;8.204;2022-09-09T11:49:39;100781.44;;;24.82;nan
69167;BME280;56273;53.148;8.204;2022-09-09T11:54:50;100780.34;;;24.72;nan
69167;BME280;56273;53.148;8.204;2022-09-09T11:57:22;100780.56;;;24.69;nan
69167;BME280;56273;53.148;8.204;2022-09-09T11:59:51;100778.75;;;24.69;nan
69167;BME280;56273;53.148;8.204;2022-09-09T12:07:35;100769.09;;;24.79;nan
69167;BME280;56273;53.148;8.204;2022-09-09T12:12:33;100765.25;;;24.83;nan
69167;BME280;56273;53.148;8.204;2022-09-09T12:17:36;100768.25;;;24.79;nan
69167;BME280;56273;53.148;8.204;2022-09-09T12:20:12;100778.75;;;24.82;nan
69167;BME280;56273;53.148;8.204;2022-09-09T12:28:33;100784.75;;;24.73;nan
69167;BME280;56273;53.148;8.204;2022-09-09T12:33:45;100793.31;;;24.65;nan
69167;BME280;56273;53.148;8.204;2022-09-09T12:36:13;100779.25;;;24.62;nan
69167;BME280;56273;53.148;8.204;2022-09-09T12:38:42;100776.81;;;24.59;nan
69167;BME280;56273;53.148;8.204;2022-09-09T12:41:18;100788.38;;;24.59;nan
69167;BME280;56273;53.148;8.204;2022-09-09T12:43:45;100783.22;;;24.56;nan
69167;BME280;56273;53.148;8.204;2022-09-09T12:46:13;100778.09;;;24.53;nan
69167;BME280;56273;53.148;8.204;2022-09-09T12:49:02;100777.34;;;24.51;nan
69167;BME280;56273;53.148;8.204;2022-09-09T12:51:30;100773.81;;;24.50;nan
69167;BME280;56273;53.148;8.204;2022-09-09T12:53:57;100773.91;;;24.49;nan
69167;BME280;56273;53.148;8.204;2022-09-09T12:56:25;100769.50;;;24.48;nan
69167;BME280;56273;53.148;8.204;2022-09-09T12:58:53;100761.59;;;24.46;nan
69167;BME280;56273;53.148;8.204;2022-09-09T13:01:32;100751.97;;;24.44;nan
69167;BME280;56273;53.148;8.204;2022-09-09T13:03:58;100757.41;;;24.42;nan
69167;BME280;56273;53.148;8.204;2022-09-09T13:06:28;100757.41;;;24.42;nan
69167;BME280;56273;53.148;8.204;2022-09-09T13:08:56;100749.38;;;24.42;nan
69167;BME280;56273;53.148;8.204;2022-09-09T13:11:31;100749.38;;;24.42;nan
69167;BME280;56273;53.148;8.204;2022-09-09T13:14:03;100754.00;;;24.40;nan
69167;BME280;56273;53.148;8.204;2022-09-09T13:16:29;100751.53;;;24.37;nan
69167;BME280;56273;53.148;8.204;2022-09-09T13:18:58;100751.72;;;24.34;nan
69167;BME280;56273;53.148;8.204;2022-09-09T13:21:34;100748.28;;;24.32;nan
69167;BME280;56273;53.148;8.204;2022-09-09T13:24:02;100752.88;;;24.30;nan
69167;BME280;56273;53.148;8.204;2022-09-09T13:26:32;100761.97;;;24.27;nan
69167;BME280;56273;53.148;8.204;2022-09-09T13:29:18;100766.66;;;24.24;nan
69167;BME280;56273;53.148;8.204;2022-09-09T13:31:44;100771.38;;;24.20;nan
69167;BME280;56273;53.148;8.204;2022-09-09T13:34:13;100766.03;;;24.20;nan
69167;BME280;56273;53.148;8.204;2022-09-09T13:37:00;100773.28;;;24.18;nan
69167;BME280;56273;53.148;8.204;2022-09-09T13:39:28;100780.56;;;24.16;nan
69167;BME280;56273;53.148;8.204;2022-09-09T13:41:54;100775.94;;;24.18;nan
69167;BME280;56273;53.148;8.204;2022-09-09T13:44:21;100770.53;;;24.20;nan
69167;BME280;56273;53.148;8.204;2022-09-09T13:47:00;100770.22;;;24.24;nan
69167;BME280;56273;53.148;8.204;2022-09-09T13:49:27;100776.19;;;24.28;nan
69167;BME280;56273;53.148;8.204;2022-09-09T13:52:03;100779.63;;;24.30;nan
69167;BME280;56273;53.148;8.204;2022-09-09T13:54:36;100778.47;;;24.34;nan
69167;BME280;56273;53.148;8.204;2022-09-09T13:57:02;100781.91;;;24.36;nan
69167;BME280;56273;53.148;8.204;2022-09-09T13:59:29;100782.09;;;24.33;nan
69167;BME280;56273;53.148;8.204;2022-09-09T14:01:54;100777.81;;;24.30;nan
69167;BME280;56273;53.148;8.204;2022-09-09T14:04:19;100785.06;;;24.28;nan
69167;BME280;56273;53.148;8.204;2022-09-09T14:06:48;100775.22;;;24.29;nan
69167;BME280;56273;53.148;8.204;2022-09-09T14:09:15;100783.25;;;24.29;nan
69167;BME280;56273;53.148;8.204;2022-09-09T14:11:42;100776.97;;;24.30;nan
69167;BME280;56273;53.148;8.204;2022-09-09T14:14:09;100772.53;;;24.29;nan
69167;BME280;56273;53.148;8.204;2022-09-09T14:16:34;100771.63;;;24.30;nan
69167;BME280;56273;53.148;8.204;2022-09-09T14:18:59;100768.09;;;24.29;nan
69167;BME280;56273;53.148;8.204;2022-09-09T14:21:26;100767.31;;;24.27;nan
69167;BME280;56273;53.148;8.204;2022-09-09T14:23:52;100759.41;;;24.26;nan
69167;BME280;56273;53.148;8.204;2022-09-09T14:26:18;100755.03;;;24.25;nan
69167;BME280;56273;53.148;8.204;2022-09-09T14:28:45;100764.75;;;24.26;nan
69167;BME280;56273;53.148;8.204;2022-09-09T14:31:11;100754.25;;;24.23;nan
69167;BME280;56273;53.148;8.204;2022-09-09T14:33:38;100753.41;;;24.22;nan
69167;BME280;56273;53.148;8.204;2022-09-09T14:36:03;100760.56;;;24.22;nan
69167;BME280;56273;53.148;8.204;2022-09-09T14:38:30;100750.84;;;24.21;nan
69167;BME280;56273;53.148;8.204;2022-09-09T14:40:58;100756.19;;;24.21;nan
69167;BME280;56273;53.148;8.204;2022-09-09T14:43:24;100757.88;;;24.22;nan
69167;BME280;56273;53.148;8.204;2022-09-09T14:45:49;100764.28;;;24.19;nan
69167;BME280;56273;53.148;8.204;2022-09-09T14:48:16;100751.81;;;24.20;nan
69167;BME280;56273;53.148;8.204;2022-09-09T14:50:41;100748.25;;;24.19;nan
69167;BME280;56273;53.148;8.204;2022-09-09T14:53:07;100749.22;;;24.18;nan
69167;BME280;56273;53.148;8.204;2022-09-09T14:55:33;100738.63;;;24.17;nan
69167;BME280;56273;53.148;8.204;2022-09-09T14:57:59;100743.13;;;24.16;nan
69167;BME280;56273;53.148;8.204;2022-09-09T15:00:24;100735.09;;;24.16;nan
69167;BME280;56273;53.148;8.204;2022-09-09T15:02:51;100737.78;;;24.16;nan
69167;BME280;56273;53.148;8.204;2022-09-09T15:05:18;100744.94;;;24.16;nan
69167;BME280;56273;53.148;8.204;2022-09-09T15:07:43;100748.59;;;24.15;nan
69167;BME280;56273;53.148;8.204;2022-09-09T15:10:08;100748.59;;;24.15;nan
69167;BME280;56273;53.148;8.204;2022-09-09T15:12:35;100737.97;;;24.13;nan
69167;BME280;56273;53.148;8.204;2022-09-09T15:15:01;100744.16;;;24.14;nan
69167;BME280;56273;53.148;8.204;2022-09-09T15:17:26;100742.25;;;24.16;nan
69167;BME280;56273;53.148;8.204;2022-09-09T15:19:52;100745.03;;;24.14;nan
69167;BME280;56273;53.148;8.204;2022-09-09T15:22:18;100740.56;;;24.15;nan
69167;BME280;56273;53.148;8.204;2022-09-09T15:24:44;100745.03;;;24.14;nan